Time;durP1;ratioP1;P1;durP2;ratioP2;P2;SDS_P1;SDS_P2;PMS_P1;PMS_P2;Temp;Humidity;BMP_temperature;BMP_pressure;BME280_temperature;BME280_humidity;BME280_pressure;Samples;Min_cycle;Max_cycle;Signal;HPM_P1;HPM_P2
2020/12/13 00:00:25;;;;;;;68.63;28.63;;;4.60;99.90;;;;;;5038048;28;20444;-64
2020/12/13 00:02:52;;;;;;;67.67;33.10;;;4.60;99.90;;;;;;5038761;28;20466;-62
2020/12/13 00:05:20;;;;;;;63.90;29.70;;;4.60;99.90;;;;;;5038121;28;20486;-63
2020/12/13 00:07:46;;;;;;;63.00;31.73;;;4.60;99.90;;;;;;5038451;28;20506;-63
2020/12/13 00:10:13;;;;;;;78.90;33.30;;;4.60;99.90;;;;;;5037830;28;20920;-62
2020/12/13 00:12:39;;;;;;;67.10;33.40;;;4.60;99.90;;;;;;5038106;28;20498;-62
2020/12/13 00:15:06;;;;;;;69.80;29.67;;;4.60;99.90;;;;;;5037680;28;20500;-63
2020/12/13 00:17:32;;;;;;;72.17;31.47;;;4.60;99.90;;;;;;5037959;28;20444;-63
2020/12/13 00:19:59;;;;;;;74.60;34.30;;;4.60;99.90;;;;;;5038495;28;20467;-62
2020/12/13 00:22:26;;;;;;;79.67;30.90;;;4.60;99.90;;;;;;5038231;28;20471;-63
2020/12/13 00:24:52;;;;;;;65.23;27.40;;;4.50;99.90;;;;;;5037814;28;20491;-63
2020/12/13 00:27:19;;;;;;;71.27;31.70;;;4.60;99.90;;;;;;5037338;28;20932;-63
2020/12/13 00:29:45;;;;;;;63.23;31.27;;;4.60;99.90;;;;;;5037845;28;20952;-63
2020/12/13 00:32:12;;;;;;;78.57;33.37;;;4.60;99.90;;;;;;5037606;28;20464;-62
2020/12/13 00:34:38;;;;;;;64.03;31.03;;;4.70;99.90;;;;;;5037698;28;20516;-63
2020/12/13 00:37:05;;;;;;;67.90;29.07;;;4.70;99.90;;;;;;5037772;28;20518;-63
2020/12/13 00:39:37;;;;;;;68.77;31.20;;;4.70;99.90;;;;;;5038188;28;20631;-64
2020/12/13 00:42:05;;;;;;;64.40;31.97;;;4.70;99.90;;;;;;5037807;28;20456;-64
2020/12/13 00:44:31;;;;;;;67.80;32.53;;;4.60;99.90;;;;;;5037601;28;20837;-63
2020/12/13 00:46:57;;;;;;;66.13;31.63;;;4.70;99.90;;;;;;5037827;28;20439;-63
2020/12/13 00:49:24;;;;;;;70.60;32.27;;;4.70;99.90;;;;;;5036916;28;20932;-63
2020/12/13 00:51:51;;;;;;;74.87;30.97;;;4.60;99.90;;;;;;5037934;28;20536;-64
2020/12/13 00:54:17;;;;;;;63.13;33.80;;;4.60;99.90;;;;;;5037775;28;20440;-62
2020/12/13 00:56:45;;;;;;;81.77;33.27;;;4.60;99.90;;;;;;5036128;28;20461;-62
2020/12/13 00:59:11;;;;;;;60.70;30.43;;;4.60;99.90;;;;;;5022369;28;20523;-62
2020/12/13 01:01:38;;;;;;;67.67;32.00;;;4.60;99.90;;;;;;5020675;28;20531;-63
2020/12/13 01:04:04;;;;;;;80.83;32.20;;;4.60;99.90;;;;;;5021467;28;20507;-62
2020/12/13 01:06:34;;;;;;;71.33;28.90;;;4.60;99.90;;;;;;5021193;28;20453;-63
2020/12/13 01:09:00;;;;;;;67.13;29.83;;;4.70;99.90;;;;;;5021799;28;20539;-63
2020/12/13 01:11:28;;;;;;;71.43;32.87;;;4.70;99.90;;;;;;5021652;28;20484;-63
2020/12/13 01:13:56;;;;;;;67.07;31.53;;;4.70;99.90;;;;;;5021160;28;20453;-62
2020/12/13 01:16:24;;;;;;;76.03;31.77;;;4.70;99.90;;;;;;5021515;28;20480;-62
2020/12/13 01:18:51;;;;;;;79.53;31.70;;;4.70;99.90;;;;;;5021465;28;20519;-63
2020/12/13 01:21:18;;;;;;;73.87;30.33;;;4.60;99.90;;;;;;5020586;28;20441;-62
2020/12/13 01:23:45;;;;;;;79.30;34.70;;;4.60;99.90;;;;;;5021220;28;20473;-63
2020/12/13 01:26:13;;;;;;;66.97;30.70;;;4.60;99.90;;;;;;5021321;28;20789;-62
2020/12/13 01:28:39;;;;;;;63.63;32.10;;;4.60;99.90;;;;;;5021022;28;20536;-62
2020/12/13 01:31:07;;;;;;;72.90;34.50;;;4.70;99.90;;;;;;5030512;28;21038;-62
2020/12/13 01:33:33;;;;;;;71.73;31.67;;;4.70;99.90;;;;;;5040681;28;20534;-62
2020/12/13 01:36:00;;;;;;;78.27;31.60;;;4.70;99.90;;;;;;5040724;28;20480;-63
2020/12/13 01:38:27;;;;;;;70.40;33.70;;;4.70;99.90;;;;;;5040999;28;20478;-62
2020/12/13 01:40:57;;;;;;;65.60;30.40;;;4.70;99.90;;;;;;5040878;28;20546;-63
2020/12/13 01:43:24;;;;;;;66.77;30.27;;;4.70;99.90;;;;;;5040452;28;20539;-62
2020/12/13 01:45:50;;;;;;;78.13;30.57;;;4.70;99.90;;;;;;5041048;28;20523;-63
2020/12/13 01:48:18;;;;;;;61.47;27.20;;;4.70;99.90;;;;;;5040420;28;20532;-63
2020/12/13 01:50:50;;;;;;;78.67;32.17;;;4.70;99.90;;;;;;5039941;28;20456;-63
2020/12/13 01:53:24;;;;;;;73.77;31.30;;;4.70;99.90;;;;;;5040881;28;20440;-63
2020/12/13 01:55:51;;;;;;;69.40;31.73;;;4.70;99.90;;;;;;5040092;28;20498;-63
2020/12/13 01:58:23;;;;;;;85.13;31.80;;;4.60;99.90;;;;;;5040596;28;20487;-63
2020/12/13 02:00:53;;;;;;;78.53;31.97;;;4.60;99.90;;;;;;5040543;28;20448;-63
2020/12/13 02:03:22;;;;;;;68.00;31.23;;;4.60;99.90;;;;;;5040649;28;20850;-63
2020/12/13 02:05:58;;;;;;;66.13;29.57;;;4.60;99.90;;;;;;5040243;28;20503;-62
2020/12/13 02:08:35;;;;;;;85.17;30.70;;;4.60;99.90;;;;;;5040201;28;20467;-62
2020/12/13 02:11:02;;;;;;;65.87;32.53;;;4.70;99.90;;;;;;5039879;28;20459;-62
2020/12/13 02:13:29;;;;;;;78.27;30.20;;;4.70;99.90;;;;;;5031972;28;20970;-63
2020/12/13 02:23:44;;;;;;;69.83;31.33;;;4.70;99.90;;;;;;5715169;22;20506;-62
2020/12/13 02:26:12;;;;;;;67.20;32.20;;;4.70;99.90;;;;;;5053463;28;20475;-63
2020/12/13 02:28:39;;;;;;;75.37;30.13;;;4.70;99.90;;;;;;5046537;28;20502;-62
2020/12/13 02:31:06;;;;;;;72.83;32.20;;;4.70;99.90;;;;;;5049131;28;20514;-64
2020/12/13 02:33:33;;;;;;;75.23;31.80;;;4.70;99.90;;;;;;5055652;28;20962;-62
2020/12/13 02:36:00;;;;;;;74.37;28.40;;;4.70;99.90;;;;;;5036092;28;20810;-62
2020/12/13 02:38:27;;;;;;;69.23;32.03;;;4.70;99.90;;;;;;5018520;28;20534;-62
2020/12/13 02:40:55;;;;;;;61.10;29.10;;;4.70;99.90;;;;;;5035729;28;20466;-63
2020/12/13 02:43:21;;;;;;;70.43;29.67;;;4.70;99.90;;;;;;5060092;28;20951;-62
2020/12/13 02:45:48;;;;;;;72.27;32.40;;;4.70;99.90;;;;;;5044380;28;20535;-62
2020/12/13 02:48:14;;;;;;;62.40;32.10;;;4.70;99.90;;;;;;5050920;28;20522;-62
2020/12/13 06:27:33;;;;;;;65.53;29.40;;;4.90;99.90;;;;;;5743460;22;20666;-63
2020/12/13 06:30:00;;;;;;;64.93;28.90;;;4.90;99.90;;;;;;4996824;28;20525;-62
2020/12/13 06:32:38;;;;;;;65.47;29.07;;;4.90;99.90;;;;;;4996487;28;20533;-62
2020/12/13 06:35:05;;;;;;;60.60;28.53;;;4.90;99.90;;;;;;4996604;28;20600;-62
2020/12/13 06:37:31;;;;;;;69.43;29.53;;;5.00;99.90;;;;;;4996400;28;20978;-62
2020/12/13 06:39:58;;;;;;;67.40;34.43;;;5.00;99.90;;;;;;4996326;28;20994;-63
2020/12/13 06:42:26;;;;;;;77.40;28.80;;;5.00;99.90;;;;;;4996572;28;20541;-62
2020/12/13 06:45:04;;;;;;;72.00;27.17;;;5.00;99.90;;;;;;4996267;28;20504;-62
2020/12/13 06:47:31;;;;;;;74.73;32.20;;;5.00;99.90;;;;;;4996202;28;20536;-63
2020/12/13 06:49:57;;;;;;;72.27;30.43;;;5.00;99.90;;;;;;4996132;28;20477;-62
2020/12/13 06:52:32;;;;;;;64.37;31.30;;;5.00;99.90;;;;;;4996421;28;20532;-64
2020/12/13 06:55:00;;;;;;;65.50;29.10;;;5.00;99.90;;;;;;4996122;28;20564;-63
2020/12/13 06:57:30;;;;;;;64.57;29.10;;;5.00;99.90;;;;;;4995956;28;20934;-62
2020/12/13 06:59:56;;;;;;;72.33;28.67;;;5.00;99.90;;;;;;4995875;28;20488;-63
2020/12/13 07:02:56;;;;;;;66.50;29.27;;;5.00;99.90;;;;;;4995834;28;20478;-63
2020/12/13 07:05:23;;;;;;;59.60;29.00;;;5.00;99.90;;;;;;4935982;29;20449;-64
2020/12/13 07:07:52;;;;;;;54.13;24.87;;;4.90;99.90;;;;;;4982859;28;20453;-63
2020/12/13 07:10:19;;;;;;;55.87;26.40;;;4.90;99.90;;;;;;4995707;28;20879;-63
2020/12/13 07:12:54;;;;;;;61.07;27.43;;;5.00;99.90;;;;;;4995712;28;20541;-64
2020/12/13 07:15:30;;;;;;;56.40;27.27;;;4.90;99.90;;;;;;4996572;28;20476;-63
2020/12/13 07:17:57;;;;;;;60.40;25.60;;;5.00;99.90;;;;;;4996053;28;20507;-64
2020/12/13 07:20:24;;;;;;;51.63;26.77;;;5.00;99.90;;;;;;4996045;28;20541;-63
2020/12/13 07:22:56;;;;;;;49.40;24.00;;;5.00;99.90;;;;;;4995787;28;20545;-64
2020/12/13 07:25:23;;;;;;;55.90;26.17;;;5.00;99.90;;;;;;4996050;28;20791;-63
2020/12/13 07:27:50;;;;;;;52.67;25.93;;;4.90;99.90;;;;;;4999325;28;21049;-63
2020/12/13 07:30:16;;;;;;;58.07;25.03;;;5.00;99.90;;;;;;4995433;28;20528;-63
2020/12/13 07:32:42;;;;;;;46.47;25.10;;;4.90;99.90;;;;;;4995290;28;20446;-64
2020/12/13 07:35:14;;;;;;;60.03;28.80;;;5.00;99.90;;;;;;4994780;28;21005;-64
2020/12/13 07:37:42;;;;;;;57.27;24.90;;;5.00;99.90;;;;;;4995421;28;20537;-63
2020/12/13 07:40:14;;;;;;;57.30;27.73;;;5.00;99.90;;;;;;4995446;28;20908;-62
2020/12/13 07:42:53;;;;;;;54.63;25.20;;;5.00;99.90;;;;;;4995291;28;20537;-63
2020/12/13 07:45:20;;;;;;;56.07;25.70;;;5.00;99.90;;;;;;4995056;28;20522;-64
2020/12/13 07:48:00;;;;;;;52.63;25.83;;;5.10;99.90;;;;;;4995079;28;20452;-64
2020/12/13 07:50:28;;;;;;;58.63;28.03;;;5.10;99.90;;;;;;4994983;28;20478;-63
2020/12/13 07:52:54;;;;;;;50.70;24.97;;;5.10;99.90;;;;;;4994891;28;20446;-64
2020/12/13 07:55:21;;;;;;;58.23;28.37;;;5.10;99.90;;;;;;4995299;28;20564;-65
2020/12/13 07:57:50;;;;;;;59.23;26.83;;;5.20;99.90;;;;;;4994928;28;20556;-63
2020/12/13 08:00:17;;;;;;;57.27;27.10;;;5.20;99.90;;;;;;4994828;28;20446;-64
2020/12/13 08:02:43;;;;;;;73.50;30.37;;;5.20;99.90;;;;;;4994936;28;20446;-63
2020/12/13 08:05:11;;;;;;;62.03;26.80;;;5.20;99.90;;;;;;5014096;28;20914;-70
2020/12/13 08:07:39;;;;;;;56.17;27.63;;;5.20;99.90;;;;;;5017272;28;20536;-70
2020/12/13 08:10:05;;;;;;;58.90;29.83;;;5.20;99.90;;;;;;5018299;28;20872;-69
2020/12/13 08:12:37;;;;;;;59.30;29.80;;;5.20;99.90;;;;;;5018121;28;20529;-70
2020/12/13 08:15:06;;;;;;;55.57;29.13;;;5.20;99.90;;;;;;5015302;28;20465;-69
2020/12/13 08:17:37;;;;;;;55.90;27.50;;;5.20;99.90;;;;;;5007664;28;20438;-69
2020/12/13 08:20:08;;;;;;;48.03;24.30;;;5.20;99.90;;;;;;5018586;28;20816;-71
2020/12/13 08:22:38;;;;;;;49.23;26.20;;;5.20;99.90;;;;;;5013284;28;20540;-71
2020/12/13 08:25:06;;;;;;;50.40;24.87;;;5.20;99.90;;;;;;5020388;28;20444;-71
2020/12/13 08:27:36;;;;;;;56.80;27.27;;;5.30;99.90;;;;;;5017849;28;21000;-70
2020/12/13 08:30:05;;;;;;;54.17;25.40;;;5.30;99.90;;;;;;5017900;28;20430;-69
2020/12/13 08:32:33;;;;;;;58.73;26.73;;;5.30;99.90;;;;;;5017926;28;20512;-68
2020/12/13 08:35:10;;;;;;;49.77;24.17;;;5.30;99.90;;;;;;5017984;28;20532;-70
2020/12/13 08:37:36;;;;;;;60.20;25.93;;;5.30;99.90;;;;;;5009186;28;20444;-72
2020/12/13 08:40:07;;;;;;;43.50;23.37;;;5.30;99.90;;;;;;4999932;28;20473;-69
2020/12/13 08:42:35;;;;;;;56.80;25.63;;;5.30;99.90;;;;;;4997252;28;20533;-71
2020/12/13 08:45:02;;;;;;;56.27;27.67;;;5.30;99.90;;;;;;4998047;28;20465;-69
2020/12/13 08:47:31;;;;;;;54.30;26.43;;;5.40;99.90;;;;;;4997851;28;20476;-69
2020/12/13 08:49:58;;;;;;;61.97;28.03;;;5.40;99.90;;;;;;4997473;28;20465;-69
2020/12/13 08:52:26;;;;;;;50.60;25.53;;;5.40;99.90;;;;;;4997614;28;20513;-70
2020/12/13 08:54:54;;;;;;;58.60;29.97;;;5.30;99.90;;;;;;4997062;28;20524;-69
2020/12/13 08:57:32;;;;;;;59.70;29.50;;;5.30;99.90;;;;;;5000166;28;20533;-69
2020/12/13 09:00:06;;;;;;;51.83;27.23;;;5.30;99.90;;;;;;5000333;28;20442;-69
2020/12/13 09:02:32;;;;;;;59.83;27.43;;;5.30;99.90;;;;;;5007769;28;20546;-69
2020/12/13 09:05:00;;;;;;;56.17;28.77;;;5.40;99.90;;;;;;5016763;28;20540;-69
2020/12/13 09:07:31;;;;;;;53.43;26.13;;;5.30;99.90;;;;;;5019869;28;20893;-70
2020/12/13 09:10:10;;;;;;;46.37;26.73;;;5.30;99.90;;;;;;5019479;28;20440;-70
2020/12/13 09:12:39;;;;;;;57.63;28.20;;;5.30;99.90;;;;;;5018506;28;20489;-70
2020/12/13 09:15:10;;;;;;;55.43;25.80;;;5.40;99.90;;;;;;5014908;28;20813;-71
2020/12/13 09:17:37;;;;;;;53.80;27.87;;;5.30;99.90;;;;;;5014133;28;20446;-70
2020/12/13 12:47:23;;;;;;;48.97;26.30;;;6.90;99.90;;;;;;5723057;23;20481;-71
2020/12/13 12:49:50;;;;;;;60.57;28.63;;;6.90;99.90;;;;;;4978939;28;20863;-71
2020/12/13 12:52:19;;;;;;;50.60;28.83;;;6.90;99.90;;;;;;4979063;28;20546;-70
2020/12/13 12:54:47;;;;;;;53.87;26.00;;;6.90;99.90;;;;;;4992952;28;20497;-70
2020/12/13 12:57:16;;;;;;;44.80;24.47;;;6.90;99.90;;;;;;4992882;28;20978;-70
2020/12/13 12:59:55;;;;;;;52.03;26.53;;;6.80;99.90;;;;;;4994792;28;20478;-70
2020/12/13 13:02:24;;;;;;;48.80;26.73;;;6.90;99.90;;;;;;4990422;28;20470;-70
2020/12/13 13:04:57;;;;;;;48.40;25.93;;;6.80;99.90;;;;;;4993591;28;20446;-71
2020/12/13 13:07:26;;;;;;;56.23;29.43;;;6.70;99.90;;;;;;4993348;28;20441;-70
2020/12/13 13:09:55;;;;;;;46.00;26.30;;;6.70;99.90;;;;;;5002301;28;20450;-69
2020/12/13 13:12:22;;;;;;;55.73;28.57;;;6.70;99.90;;;;;;5001441;28;20969;-70
2020/12/13 13:14:49;;;;;;;46.30;27.83;;;6.70;99.90;;;;;;5002057;28;20445;-69
2020/12/13 13:17:18;;;;;;;48.07;27.53;;;6.70;99.90;;;;;;5002435;28;20536;-70
2020/12/13 13:19:48;;;;;;;81.40;42.90;;;6.70;99.90;;;;;;5002349;28;20470;-70
2020/12/13 13:22:15;;;;;;;65.10;32.50;;;6.70;99.90;;;;;;5002021;28;20442;-70
2020/12/13 13:24:41;;;;;;;49.83;26.77;;;6.70;99.90;;;;;;5002360;28;20906;-69
2020/12/13 13:27:08;;;;;;;54.13;31.87;;;6.70;99.90;;;;;;5002676;28;20441;-69
2020/12/13 13:29:34;;;;;;;45.80;25.60;;;6.70;99.90;;;;;;5002655;28;20489;-69
2020/12/13 13:32:00;;;;;;;57.20;30.20;;;6.70;99.90;;;;;;5002301;28;20456;-69
2020/12/13 13:34:27;;;;;;;53.53;27.33;;;6.60;99.90;;;;;;5001990;28;20930;-69
2020/12/13 13:36:54;;;;;;;51.63;29.30;;;6.70;99.90;;;;;;5002281;28;20958;-70
2020/12/13 13:39:21;;;;;;;46.53;26.30;;;6.70;99.90;;;;;;5001969;28;20532;-69
2020/12/13 13:41:47;;;;;;;51.73;27.27;;;6.70;99.90;;;;;;4998371;28;20443;-70
2020/12/13 13:44:18;;;;;;;51.40;26.37;;;6.70;99.90;;;;;;4998310;28;21005;-70
2020/12/13 13:46:50;;;;;;;50.40;26.07;;;6.70;99.90;;;;;;4998004;28;20522;-69
2020/12/13 13:52:02;;;;;;;45.30;26.63;;;6.70;99.90;;;;;;4991703;28;20772;-70
2020/12/13 13:54:29;;;;;;;52.77;26.27;;;6.70;99.90;;;;;;4978954;28;20447;-70
2020/12/13 13:57:00;;;;;;;43.47;25.03;;;6.60;99.90;;;;;;4978056;28;20486;-71
2020/12/13 13:59:28;;;;;;;48.20;25.33;;;6.60;99.90;;;;;;4978736;28;20455;-70
2020/12/13 14:01:55;;;;;;;47.47;25.20;;;6.60;99.90;;;;;;4978088;28;20528;-72
2020/12/13 14:04:21;;;;;;;44.23;25.63;;;6.60;99.90;;;;;;4978064;28;20477;-70
2020/12/13 14:07:27;;;;;;;51.77;26.70;;;6.50;99.90;;;;;;4976982;28;20449;-69
2020/12/13 14:09:54;;;;;;;46.63;25.97;;;6.50;99.90;;;;;;4978058;28;20702;-70
2020/12/13 14:12:20;;;;;;;45.80;27.30;;;6.50;99.90;;;;;;4977522;28;20475;-70
2020/12/13 14:14:47;;;;;;;52.10;26.87;;;6.50;99.90;;;;;;4977722;28;20554;-71
2020/12/13 14:17:13;;;;;;;55.03;28.87;;;6.40;99.90;;;;;;4977546;28;20547;-69
2020/12/13 14:19:39;;;;;;;60.90;29.37;;;6.50;99.90;;;;;;4977665;28;20521;-70
2020/12/13 14:22:06;;;;;;;56.47;27.10;;;6.50;99.90;;;;;;4977655;28;20458;-70
2020/12/13 14:24:32;;;;;;;53.30;28.80;;;6.50;99.90;;;;;;4977588;28;20478;-70
2020/12/13 14:27:03;;;;;;;63.57;27.67;;;6.50;99.90;;;;;;4977750;28;20466;-70
2020/12/13 14:29:29;;;;;;;57.23;28.90;;;6.50;99.90;;;;;;4979231;28;20444;-70
2020/12/13 14:31:55;;;;;;;53.13;30.00;;;6.40;99.90;;;;;;4979371;28;20817;-70
2020/12/13 14:34:22;;;;;;;82.20;28.70;;;6.40;99.90;;;;;;4980224;28;20457;-69
2020/12/13 14:36:51;;;;;;;52.57;29.37;;;6.40;99.90;;;;;;4980413;28;20598;-70
2020/12/13 14:39:18;;;;;;;53.23;28.60;;;6.50;99.90;;;;;;4980344;28;20535;-70
2020/12/13 14:41:51;;;;;;;53.70;28.40;;;6.50;99.90;;;;;;4979508;28;20537;-69
2020/12/13 14:44:18;;;;;;;46.27;25.83;;;6.50;99.90;;;;;;4979946;28;20535;-70
2020/12/13 14:46:45;;;;;;;55.73;29.40;;;6.50;99.90;;;;;;4979937;28;20462;-69
2020/12/13 14:49:11;;;;;;;54.67;26.23;;;6.40;99.90;;;;;;4985294;28;20489;-69
2020/12/13 14:51:38;;;;;;;61.50;28.30;;;6.40;99.90;;;;;;4981618;28;20451;-69
2020/12/13 14:54:05;;;;;;;65.80;26.93;;;6.50;99.90;;;;;;4981392;28;20455;-71
2020/12/13 14:56:31;;;;;;;54.97;27.10;;;6.50;99.90;;;;;;4981989;28;20835;-69
2020/12/13 14:58:57;;;;;;;50.00;26.87;;;6.50;99.90;;;;;;4981813;28;20834;-69
2020/12/13 15:01:25;;;;;;;55.93;27.90;;;6.40;99.90;;;;;;4981291;28;20509;-70
2020/12/13 15:03:52;;;;;;;57.03;26.67;;;6.40;99.90;;;;;;4981401;28;20462;-71
2020/12/13 15:06:22;;;;;;;57.13;27.67;;;6.40;99.90;;;;;;4981637;28;20447;-70
2020/12/13 15:08:49;;;;;;;55.47;27.10;;;6.30;99.90;;;;;;4981245;28;20530;-70
2020/12/13 15:11:15;;;;;;;53.97;28.07;;;6.30;99.90;;;;;;4981126;28;20451;-70
2020/12/13 15:13:45;;;;;;;57.57;28.27;;;6.30;99.90;;;;;;4980923;28;20796;-70
2020/12/13 15:16:26;;;;;;;61.87;28.07;;;6.20;99.90;;;;;;4980443;28;20482;-71
2020/12/13 15:18:54;;;;;;;59.33;26.77;;;6.10;99.90;;;;;;4981488;28;20631;-69
2020/12/13 15:21:20;;;;;;;56.30;29.00;;;6.10;99.90;;;;;;4981614;28;20576;-70
2020/12/13 15:23:46;;;;;;;55.90;28.57;;;6.10;99.90;;;;;;4981982;28;20479;-70
2020/12/13 15:26:13;;;;;;;56.57;25.40;;;6.10;99.90;;;;;;4981465;28;20455;-70
2020/12/13 15:28:39;;;;;;;55.70;26.57;;;6.10;99.90;;;;;;4981292;28;20546;-70
2020/12/13 15:31:05;;;;;;;59.13;30.03;;;6.10;99.90;;;;;;4981709;28;20534;-70
2020/12/13 15:33:32;;;;;;;52.57;27.00;;;6.10;99.90;;;;;;4980988;28;20475;-70
2020/12/13 15:35:59;;;;;;;69.23;26.73;;;6.10;99.90;;;;;;4984089;28;20560;-69
2020/12/13 15:38:27;;;;;;;57.67;28.63;;;6.00;99.90;;;;;;4982427;28;20498;-70
2020/12/13 15:40:54;;;;;;;52.87;28.07;;;6.00;99.90;;;;;;4987359;28;20489;-70
2020/12/13 15:43:21;;;;;;;57.30;27.07;;;6.00;99.90;;;;;;4983553;28;20521;-70
2020/12/13 15:45:47;;;;;;;46.13;24.53;;;6.00;99.90;;;;;;4980697;28;20447;-71
2020/12/13 15:48:15;;;;;;;54.17;27.87;;;5.90;99.90;;;;;;4982011;28;20867;-71
2020/12/13 15:50:43;;;;;;;53.03;27.57;;;5.90;99.90;;;;;;4982339;28;20553;-70
2020/12/13 15:53:12;;;;;;;61.00;28.20;;;5.90;99.90;;;;;;4980753;28;20451;-70
2020/12/13 15:55:38;;;;;;;60.87;27.93;;;5.90;99.90;;;;;;4980665;28;20967;-70
2020/12/13 15:58:05;;;;;;;56.53;27.00;;;5.80;99.90;;;;;;4980335;28;20454;-69
2020/12/13 16:00:31;;;;;;;65.80;28.60;;;5.80;99.90;;;;;;4980736;28;20509;-70
2020/12/13 16:02:59;;;;;;;53.93;24.20;;;5.80;99.90;;;;;;4980824;28;20454;-71
2020/12/13 16:05:29;;;;;;;74.87;28.47;;;5.80;99.90;;;;;;4980485;28;20490;-70
2020/12/13 16:07:57;;;;;;;55.10;24.63;;;5.80;99.90;;;;;;4980483;28;20525;-70
2020/12/13 16:10:25;;;;;;;60.53;26.27;;;5.80;99.90;;;;;;4980803;28;20826;-71
2020/12/13 16:12:52;;;;;;;57.27;26.27;;;5.80;99.90;;;;;;4980458;28;20451;-70
2020/12/13 16:15:20;;;;;;;62.63;28.20;;;5.80;99.90;;;;;;4980637;28;20476;-70
2020/12/13 16:17:46;;;;;;;51.20;24.50;;;5.80;99.90;;;;;;4981015;28;20504;-71
2020/12/13 16:20:13;;;;;;;62.23;25.80;;;5.90;99.90;;;;;;4981313;28;20549;-70
2020/12/13 16:22:40;;;;;;;57.80;24.27;;;5.80;99.90;;;;;;4980589;28;20454;-70
2020/12/13 16:25:09;;;;;;;64.80;25.40;;;5.80;99.90;;;;;;4981250;28;20486;-69
2020/12/13 16:27:36;;;;;;;58.00;26.13;;;5.70;99.90;;;;;;4980989;28;20439;-70
2020/12/13 16:30:03;;;;;;;49.07;25.37;;;5.70;99.90;;;;;;4980529;28;20462;-71
2020/12/13 16:32:30;;;;;;;57.47;26.70;;;5.80;99.90;;;;;;4980804;28;20792;-70
2020/12/13 16:34:57;;;;;;;55.07;26.93;;;5.80;99.90;;;;;;4980298;28;20467;-70
2020/12/13 16:37:23;;;;;;;53.83;25.30;;;5.70;99.90;;;;;;4981045;28;20542;-70
2020/12/13 16:39:51;;;;;;;61.40;27.30;;;5.70;99.90;;;;;;4981062;28;20517;-70
2020/12/13 16:42:23;;;;;;;58.27;26.77;;;5.70;99.90;;;;;;4981205;28;20454;-70
2020/12/13 16:44:51;;;;;;;52.93;26.63;;;5.60;99.90;;;;;;4981038;28;20831;-70
2020/12/13 16:47:21;;;;;;;61.67;25.70;;;5.70;99.90;;;;;;4980165;28;20482;-70
2020/12/13 16:55:27;;;;;;;61.80;26.20;;;5.80;99.90;;;;;;4980753;28;20438;-70
2020/12/13 16:57:55;;;;;;;53.57;26.67;;;5.70;99.90;;;;;;4980162;28;20467;-71
2020/12/13 17:00:22;;;;;;;62.80;26.43;;;5.70;99.90;;;;;;4980308;28;20485;-70
2020/12/13 17:02:49;;;;;;;61.93;28.40;;;5.70;99.90;;;;;;4980384;28;20467;-72
2020/12/13 17:05:16;;;;;;;73.90;28.07;;;5.60;99.90;;;;;;4980127;28;20435;-70
2020/12/13 17:07:43;;;;;;;63.17;29.33;;;5.70;99.90;;;;;;4979949;28;20457;-70
2020/12/13 17:10:09;;;;;;;73.23;32.80;;;5.60;99.90;;;;;;4980683;28;20461;-70
2020/12/13 17:12:40;;;;;;;53.87;26.80;;;5.60;99.90;;;;;;4979973;28;20446;-70
2020/12/13 17:15:08;;;;;;;69.90;30.30;;;5.70;99.90;;;;;;4980046;28;20479;-70
2020/12/13 17:17:37;;;;;;;81.43;34.77;;;5.60;99.90;;;;;;4980466;28;20892;-70
2020/12/13 17:20:05;;;;;;;80.00;30.40;;;5.70;99.90;;;;;;4980439;28;20509;-70
2020/12/13 17:22:31;;;;;;;59.73;26.53;;;5.70;99.90;;;;;;4981049;28;20521;-70
2020/12/13 17:24:58;;;;;;;62.23;30.80;;;5.80;99.90;;;;;;4980808;28;20475;-70
2020/12/13 17:27:24;;;;;;;69.03;30.40;;;5.80;99.90;;;;;;4980251;28;20931;-70
2020/12/13 17:29:51;;;;;;;65.60;28.00;;;5.80;99.90;;;;;;4980213;28;20447;-70
2020/12/13 17:32:18;;;;;;;67.43;30.50;;;5.80;99.90;;;;;;4980373;28;20486;-71
2020/12/13 17:34:46;;;;;;;69.73;32.20;;;5.80;99.90;;;;;;4980504;28;20443;-71
2020/12/13 17:37:13;;;;;;;67.17;30.10;;;5.90;99.90;;;;;;4980137;28;20518;-70
2020/12/13 17:39:39;;;;;;;60.33;27.60;;;5.90;99.90;;;;;;4980293;28;20890;-70
2020/12/13 17:42:06;;;;;;;70.67;29.23;;;5.90;99.90;;;;;;4981665;28;20834;-71
2020/12/13 17:44:34;;;;;;;76.53;33.10;;;5.90;99.90;;;;;;4982814;28;20525;-71
2020/12/13 17:47:02;;;;;;;120.17;49.97;;;5.90;99.90;;;;;;4982423;28;20474;-71
2020/12/13 17:49:29;;;;;;;72.80;32.03;;;5.90;99.90;;;;;;4982866;28;20453;-71
2020/12/13 17:52:02;;;;;;;62.87;26.60;;;5.80;99.90;;;;;;4983297;28;20442;-70
2020/12/13 17:54:37;;;;;;;55.33;28.37;;;5.80;99.90;;;;;;4982690;28;20483;-70
2020/12/13 17:57:08;;;;;;;60.67;31.47;;;5.80;99.90;;;;;;4982658;28;20492;-70
2020/12/13 17:59:37;;;;;;;67.53;29.53;;;5.80;99.90;;;;;;4982115;28;20530;-71
2020/12/13 18:02:03;;;;;;;65.30;29.53;;;5.80;99.90;;;;;;4982754;28;20530;-71
2020/12/13 18:04:30;;;;;;;73.57;31.27;;;5.80;99.90;;;;;;4982488;28;20517;-70
2020/12/13 18:06:57;;;;;;;74.40;30.43;;;5.70;99.90;;;;;;4982644;28;21000;-70
2020/12/13 18:09:23;;;;;;;76.60;30.93;;;5.70;99.90;;;;;;4982731;28;20442;-70
2020/12/13 18:11:55;;;;;;;66.30;28.37;;;5.70;99.90;;;;;;4982240;28;20770;-71
2020/12/13 18:14:23;;;;;;;65.17;30.60;;;5.80;99.90;;;;;;4983730;28;20809;-70
2020/12/13 18:16:49;;;;;;;81.10;32.20;;;5.80;99.90;;;;;;4982452;28;20518;-70
2020/12/13 18:19:16;;;;;;;67.50;26.50;;;5.70;99.90;;;;;;4983282;28;20502;-70
2020/12/13 18:21:46;;;;;;;72.90;28.70;;;5.70;99.90;;;;;;4982515;28;20517;-71
2020/12/13 18:24:13;;;;;;;74.03;28.37;;;5.70;99.90;;;;;;4982323;28;20788;-70
2020/12/13 18:26:40;;;;;;;70.20;29.27;;;5.70;99.90;;;;;;4981802;28;20486;-70
2020/12/13 18:29:10;;;;;;;73.10;29.03;;;5.80;99.90;;;;;;4982181;28;20542;-70
2020/12/13 18:31:36;;;;;;;77.77;29.67;;;5.80;99.90;;;;;;4982017;28;20501;-71
2020/12/13 18:34:03;;;;;;;66.07;30.57;;;5.80;99.90;;;;;;4982195;28;20490;-70
2020/12/13 18:36:30;;;;;;;69.93;30.80;;;5.80;99.90;;;;;;4981823;28;20498;-70
2020/12/13 18:38:56;;;;;;;73.37;29.97;;;5.80;99.90;;;;;;4982757;28;20482;-69
2020/12/13 18:41:23;;;;;;;84.43;31.60;;;5.80;99.90;;;;;;4982244;28;20916;-69
2020/12/13 18:43:50;;;;;;;76.23;30.00;;;5.70;99.90;;;;;;4981921;28;20487;-70
2020/12/13 18:46:17;;;;;;;71.60;29.37;;;5.70;99.90;;;;;;4982428;28;20478;-70
2020/12/13 18:48:44;;;;;;;76.03;30.23;;;5.70;99.90;;;;;;4982220;28;20537;-70
2020/12/13 18:51:11;;;;;;;85.13;30.53;;;5.80;99.90;;;;;;4981508;28;20483;-70
2020/12/13 18:53:39;;;;;;;56.23;29.67;;;5.80;99.90;;;;;;4981272;28;20443;-70
2020/12/13 18:56:05;;;;;;;61.53;26.00;;;5.90;99.90;;;;;;4982038;28;20971;-70
2020/12/13 18:58:33;;;;;;;63.13;27.70;;;5.90;99.90;;;;;;4982523;28;20515;-69
2020/12/13 19:00:59;;;;;;;70.40;28.33;;;5.80;99.90;;;;;;4981903;28;20553;-70
2020/12/13 19:06:14;;;;;;;66.97;27.00;;;5.80;99.90;;;;;;4981690;28;20486;-69
2020/12/13 19:08:41;;;;;;;76.53;31.20;;;5.80;99.90;;;;;;4981904;28;20509;-70
2020/12/13 19:11:07;;;;;;;78.13;29.33;;;5.80;99.90;;;;;;4981603;28;20834;-70
2020/12/13 19:13:34;;;;;;;68.17;26.33;;;5.80;99.90;;;;;;4981903;28;20824;-71
2020/12/13 19:16:01;;;;;;;70.93;30.07;;;5.80;99.90;;;;;;4981586;28;20526;-71
2020/12/13 19:18:30;;;;;;;64.63;24.73;;;5.80;99.90;;;;;;4982165;28;20509;-70
2020/12/13 19:20:57;;;;;;;59.60;26.17;;;5.80;99.90;;;;;;4982509;28;20857;-71
2020/12/13 19:23:24;;;;;;;75.57;29.93;;;5.80;99.90;;;;;;4982060;28;20458;-71
2020/12/13 19:25:51;;;;;;;71.33;28.63;;;5.90;99.90;;;;;;4981590;28;20462;-71
2020/12/13 19:28:17;;;;;;;68.63;26.27;;;5.90;99.90;;;;;;4981813;28;20784;-71
2020/12/13 19:30:45;;;;;;;56.40;26.23;;;6.00;99.90;;;;;;4981370;28;20489;-71
2020/12/13 19:33:11;;;;;;;73.60;30.50;;;6.00;99.90;;;;;;4981353;28;20541;-70
2020/12/13 19:35:38;;;;;;;57.70;29.00;;;6.00;99.90;;;;;;4981497;28;20538;-70
2020/12/13 19:38:04;;;;;;;58.67;25.90;;;6.00;99.90;;;;;;4981455;28;20569;-70
2020/12/13 19:40:31;;;;;;;63.53;27.13;;;6.00;99.90;;;;;;4981395;28;20517;-70
2020/12/13 19:42:58;;;;;;;60.07;27.87;;;5.90;99.90;;;;;;4982224;28;20494;-71
2020/12/13 19:45:24;;;;;;;62.90;25.97;;;5.90;99.90;;;;;;4983118;28;20478;-71
2020/12/13 19:47:51;;;;;;;57.20;26.70;;;5.90;99.90;;;;;;4980740;28;20470;-71
2020/12/13 19:50:19;;;;;;;57.40;26.57;;;5.80;99.90;;;;;;4980980;28;20446;-70
2020/12/13 19:52:47;;;;;;;74.47;25.87;;;5.80;99.90;;;;;;4981325;28;20465;-70
2020/12/13 19:55:14;;;;;;;58.10;26.70;;;5.80;99.90;;;;;;4980330;28;20494;-71
2020/12/13 19:57:46;;;;;;;56.43;24.13;;;5.80;99.90;;;;;;4981010;28;20478;-70
2020/12/13 20:00:13;;;;;;;59.73;25.97;;;5.80;99.90;;;;;;4981273;28;20469;-70
2020/12/13 20:02:42;;;;;;;58.40;23.80;;;5.80;99.90;;;;;;4980394;28;20436;-70